Anderson, Ohio
Current Conditions -  °F | °C
As of 2:53 PM on Thursday 20 Nov 2014 (Local Time) from KLUK Reporting Station
Few Clouds Few Clouds  
Wind Chill: 23°   Ceiling: Unl
Heat Index: 32°   Visibility: 10mi
Dew Point: 15°   Wind: 13mph
Humidity: 50%   Direction: 240°WSW
Pressure: 30.16"   Gusts: NA
Location:  39.0659°N, 84.278°W
Report Text: KLUK 201953Z 24011KT 10SM FEW045 00/M09 A3016 RMK AO2 SLP219 T00001094
Loading
Personal Weather Stations






























Interactive Weather Map New forecast layout! Learn more

10-Day Weather Forecast

Advertisements
Track Severe Weather on mobile